sensor_id;sensor_type;location;lat;lon;timestamp;pressure;altitude;pressure_sealevel;temperature;humidity
65800;BME280;52544;48.116;11.660;2023-05-16T00:02:22;95232.50;;;10.54;100.00
65800;BME280;52544;48.116;11.660;2023-05-16T00:04:48;95237.34;;;10.58;100.00
65800;BME280;52544;48.116;11.660;2023-05-16T00:07:13;95227.31;;;10.52;100.00
65800;BME280;52544;48.116;11.660;2023-05-16T00:09:39;95222.28;;;10.49;100.00
65800;BME280;52544;48.116;11.660;2023-05-16T00:12:04;95219.13;;;10.45;100.00
65800;BME280;52544;48.116;11.660;2023-05-16T00:14:30;95217.41;;;10.44;100.00
65800;BME280;52544;48.116;11.660;2023-05-16T00:16:55;95228.16;;;10.43;100.00
65800;BME280;52544;48.116;11.660;2023-05-16T00:19:24;95231.78;;;10.42;100.00
65800;BME280;52544;48.116;11.660;2023-05-16T00:21:51;95224.13;;;10.39;100.00
65800;BME280;52544;48.116;11.660;2023-05-16T00:24:17;95225.78;;;10.40;100.00
65800;BME280;52544;48.116;11.660;2023-05-16T00:26:42;95229.81;;;10.44;100.00
65800;BME280;52544;48.116;11.660;2023-05-16T00:29:08;95226.75;;;10.48;100.00
65800;BME280;52544;48.116;11.660;2023-05-16T00:31:33;95227.31;;;10.52;100.00
65800;BME280;52544;48.116;11.660;2023-05-16T00:33:59;95227.88;;;10.46;100.00
65800;BME280;52544;48.116;11.660;2023-05-16T00:36:24;95224.69;;;10.42;100.00
65800;BME280;52544;48.116;11.660;2023-05-16T00:38:50;95228.41;;;10.40;100.00
65800;BME280;52544;48.116;11.660;2023-05-16T00:41:16;95227.47;;;10.41;100.00
65800;BME280;52544;48.116;11.660;2023-05-16T00:43:41;95221.63;;;10.37;100.00
65800;BME280;52544;48.116;11.660;2023-05-16T00:46:07;95218.13;;;10.37;100.00
65800;BME280;52544;48.116;11.660;2023-05-16T00:48:32;95228.84;;;10.35;100.00
65800;BME280;52544;48.116;11.660;2023-05-16T00:50:58;95223.69;;;10.34;100.00
65800;BME280;52544;48.116;11.660;2023-05-16T00:53:24;95222.56;;;10.36;100.00
65800;BME280;52544;48.116;11.660;2023-05-16T00:55:51;95223.44;;;10.37;100.00
65800;BME280;52544;48.116;11.660;2023-05-16T00:58:17;95223.69;;;10.34;100.00
65800;BME280;52544;48.116;11.660;2023-05-16T01:00:43;95225.09;;;10.28;100.00
65800;BME280;52544;48.116;11.660;2023-05-16T01:03:09;95221.72;;;10.26;100.00
65800;BME280;52544;48.116;11.660;2023-05-16T01:05:36;95227.59;;;10.30;100.00
65800;BME280;52544;48.116;11.660;2023-05-16T01:08:01;95219.66;;;10.30;100.00
65800;BME280;52544;48.116;11.660;2023-05-16T01:10:31;95229.41;;;10.29;100.00
65800;BME280;52544;48.116;11.660;2023-05-16T01:13:10;95218.38;;;10.24;100.00
65800;BME280;52544;48.116;11.660;2023-05-16T01:15:47;95214.88;;;10.23;100.00
65800;BME280;52544;48.116;11.660;2023-05-16T01:18:26;95212.00;;;10.26;100.00
65800;BME280;52544;48.116;11.660;2023-05-16T01:21:01;95208.66;;;10.24;100.00
65800;BME280;52544;48.116;11.660;2023-05-16T01:28:39;95205.28;;;10.22;100.00
65800;BME280;52544;48.116;11.660;2023-05-16T01:31:05;95206.84;;;10.25;100.00
65800;BME280;52544;48.116;11.660;2023-05-16T01:33:31;95207.22;;;10.20;100.00
65800;BME280;52544;48.116;11.660;2023-05-16T01:36:08;95195.94;;;10.18;100.00
65800;BME280;52544;48.116;11.660;2023-05-16T01:38:49;95200.97;;;10.21;100.00
65800;BME280;52544;48.116;11.660;2023-05-16T01:41:23;95206.66;;;10.17;100.00
65800;BME280;52544;48.116;11.660;2023-05-16T01:43:58;95197.75;;;10.18;100.00
65800;BME280;52544;48.116;11.660;2023-05-16T01:46:26;95198.59;;;10.18;100.00
65800;BME280;52544;48.116;11.660;2023-05-16T01:51:32;95196.91;;;10.17;100.00
65800;BME280;52544;48.116;11.660;2023-05-16T01:54:04;95191.63;;;10.17;100.00
65800;BME280;52544;48.116;11.660;2023-05-16T01:56:31;95201.09;;;10.10;100.00
65800;BME280;52544;48.116;11.660;2023-05-16T01:58:58;95203.19;;;10.16;100.00
65800;BME280;52544;48.116;11.660;2023-05-16T02:01:23;95199.41;;;10.19;100.00
65800;BME280;52544;48.116;11.660;2023-05-16T02:03:49;95200.81;;;10.13;100.00
65800;BME280;52544;48.116;11.660;2023-05-16T02:06:15;95200.81;;;10.13;100.00
65800;BME280;52544;48.116;11.660;2023-05-16T02:08:41;95206.94;;;10.14;100.00
65800;BME280;52544;48.116;11.660;2023-05-16T02:11:06;95204.44;;;10.12;100.00
65800;BME280;52544;48.116;11.660;2023-05-16T02:13:31;95195.25;;;10.16;100.00
65800;BME280;52544;48.116;11.660;2023-05-16T02:15:57;95200.53;;;10.16;100.00
65800;BME280;52544;48.116;11.660;2023-05-16T02:18:22;95207.75;;;10.14;100.00
65800;BME280;52544;48.116;11.660;2023-05-16T02:20:48;95209.47;;;10.15;100.00
65800;BME280;52544;48.116;11.660;2023-05-16T02:23:14;95212.09;;;10.15;100.00
65800;BME280;52544;48.116;11.660;2023-05-16T02:25:39;95216.41;;;10.16;100.00
65800;BME280;52544;48.116;11.660;2023-05-16T02:28:05;95214.59;;;10.17;100.00
65800;BME280;52544;48.116;11.660;2023-05-16T02:30:31;95209.16;;;10.18;100.00
65800;BME280;52544;48.116;11.660;2023-05-16T02:32:56;95219.75;;;10.18;100.00
65800;BME280;52544;48.116;11.660;2023-05-16T02:35:21;95211.38;;;10.13;100.00
65800;BME280;52544;48.116;11.660;2023-05-16T02:37:47;95206.66;;;10.17;100.00
65800;BME280;52544;48.116;11.660;2023-05-16T02:40:12;95213.06;;;10.14;100.00
65800;BME280;52544;48.116;11.660;2023-05-16T02:42:38;95209.47;;;10.15;100.00
65800;BME280;52544;48.116;11.660;2023-05-16T02:45:03;95202.78;;;10.11;100.00
65800;BME280;52544;48.116;11.660;2023-05-16T02:47:29;95203.59;;;10.12;100.00
65800;BME280;52544;48.116;11.660;2023-05-16T02:49:54;95208.91;;;10.12;100.00
65800;BME280;52544;48.116;11.660;2023-05-16T02:52:20;95195.78;;;10.10;100.00
65800;BME280;52544;48.116;11.660;2023-05-16T02:54:46;95200.13;;;10.11;100.00
65800;BME280;52544;48.116;11.660;2023-05-16T02:57:11;95194.41;;;10.06;100.00
65800;BME280;52544;48.116;11.660;2023-05-16T02:59:37;95197.88;;;10.07;100.00
65800;BME280;52544;48.116;11.660;2023-05-16T03:02:02;95203.03;;;10.08;100.00
65800;BME280;52544;48.116;11.660;2023-05-16T03:04:28;95193.44;;;10.07;100.00
65800;BME280;52544;48.116;11.660;2023-05-16T03:06:53;95198.03;;;10.05;100.00
65800;BME280;52544;48.116;11.660;2023-05-16T03:09:19;95199.97;;;10.03;100.00
65800;BME280;52544;48.116;11.660;2023-05-16T03:11:44;95196.34;;;10.04;100.00
65800;BME280;52544;48.116;11.660;2023-05-16T03:14:10;95194.69;;;10.03;100.00
65800;BME280;52544;48.116;11.660;2023-05-16T03:16:36;95193.00;;;10.02;100.00
65800;BME280;52544;48.116;11.660;2023-05-16T03:19:03;95200.25;;;10.00;100.00
65800;BME280;52544;48.116;11.660;2023-05-16T03:21:29;95193.97;;;10.01;100.00
65800;BME280;52544;48.116;11.660;2023-05-16T03:23:54;95194.38;;;9.96;100.00
65800;BME280;52544;48.116;11.660;2023-05-16T03:26:19;95194.25;;;9.98;100.00
65800;BME280;52544;48.116;11.660;2023-05-16T03:28:47;95194.97;;;10.00;100.00
65800;BME280;52544;48.116;11.660;2023-05-16T03:31:12;95198.28;;;10.02;100.00
65800;BME280;52544;48.116;11.660;2023-05-16T03:33:37;95190.50;;;10.00;100.00
65800;BME280;52544;48.116;11.660;2023-05-16T03:36:03;95189.41;;;10.03;100.00
65800;BME280;52544;48.116;11.660;2023-05-16T03:38:29;95194.97;;;10.00;100.00
65800;BME280;52544;48.116;11.660;2023-05-16T03:40:55;95204.81;;;9.98;100.00
65800;BME280;52544;48.116;11.660;2023-05-16T03:43:20;95205.53;;;10.00;100.00
65800;BME280;52544;48.116;11.660;2023-05-16T03:45:45;95196.63;;;10.01;100.00
65800;BME280;52544;48.116;11.660;2023-05-16T03:48:11;95198.28;;;10.02;100.00
65800;BME280;52544;48.116;11.660;2023-05-16T03:50:36;95196.34;;;10.04;100.00
65800;BME280;52544;48.116;11.660;2023-05-16T03:53:02;95195.53;;;10.04;100.00
65800;BME280;52544;48.116;11.660;2023-05-16T03:55:28;95189.25;;;10.05;100.00
65800;BME280;52544;48.116;11.660;2023-05-16T03:57:55;95193.72;;;10.04;100.00
65800;BME280;52544;48.116;11.660;2023-05-16T04:00:20;95196.34;;;10.04;100.00
65800;BME280;52544;48.116;11.660;2023-05-16T04:02:46;95197.19;;;10.05;100.00
65800;BME280;52544;48.116;11.660;2023-05-16T04:05:11;95196.09;;;10.07;100.00
65800;BME280;52544;48.116;11.660;2023-05-16T04:07:38;95208.59;;;10.05;100.00
65800;BME280;52544;48.116;11.660;2023-05-16T04:10:04;95206.94;;;10.04;100.00
65800;BME280;52544;48.116;11.660;2023-05-16T04:12:30;95198.72;;;10.07;100.00
65800;BME280;52544;48.116;11.660;2023-05-16T04:14:56;95198.03;;;10.05;100.00
65800;BME280;52544;48.116;11.660;2023-05-16T04:17:21;95193.56;;;10.06;100.00
65800;BME280;52544;48.116;11.660;2023-05-16T04:19:46;95191.75;;;10.06;100.00
65800;BME280;52544;48.116;11.660;2023-05-16T04:22:12;95192.72;;;10.05;100.00
65800;BME280;52544;48.116;11.660;2023-05-16T04:24:37;95188.44;;;10.04;100.00
65800;BME280;52544;48.116;11.660;2023-05-16T04:27:03;95192.59;;;10.07;100.00
65800;BME280;52544;48.116;11.660;2023-05-16T04:29:29;95196.78;;;10.09;100.00
65800;BME280;52544;48.116;11.660;2023-05-16T04:31:55;95206.66;;;10.07;100.00
65800;BME280;52544;48.116;11.660;2023-05-16T04:34:20;95199.41;;;10.09;100.00
65800;BME280;52544;48.116;11.660;2023-05-16T04:36:47;95202.63;;;10.13;100.00
65800;BME280;52544;48.116;11.660;2023-05-16T04:39:12;95193.84;;;10.02;100.00
65800;BME280;52544;48.116;11.660;2023-05-16T04:41:38;95189.94;;;9.97;100.00
65800;BME280;52544;48.116;11.660;2023-05-16T04:44:03;95195.78;;;10.00;100.00
65800;BME280;52544;48.116;11.660;2023-05-16T04:46:29;95190.91;;;9.96;100.00
65800;BME280;52544;48.116;11.660;2023-05-16T04:48:55;95197.03;;;10.06;100.00
65800;BME280;52544;48.116;11.660;2023-05-16T04:51:21;95182.88;;;10.07;100.00
65800;BME280;52544;48.116;11.660;2023-05-16T04:53:46;95184.53;;;10.08;100.00
65800;BME280;52544;48.116;11.660;2023-05-16T04:56:12;95182.16;;;10.05;100.00
65800;BME280;52544;48.116;11.660;2023-05-16T04:58:38;95186.34;;;10.08;100.00
65800;BME280;52544;48.116;11.660;2023-05-16T05:01:03;95187.72;;;10.02;100.00
65800;BME280;52544;48.116;11.660;2023-05-16T05:03:29;95195.94;;;9.99;100.00
65800;BME280;52544;48.116;11.660;2023-05-16T05:05:54;95200.81;;;10.04;100.00
65800;BME280;52544;48.116;11.660;2023-05-16T05:08:20;95194.41;;;10.06;100.00
65800;BME280;52544;48.116;11.660;2023-05-16T05:10:46;95189.94;;;10.07;100.00
65800;BME280;52544;48.116;11.660;2023-05-16T05:13:11;95192.19;;;10.11;100.00
65800;BME280;52544;48.116;11.660;2023-05-16T05:15:36;95195.53;;;10.04;100.00
65800;BME280;52544;48.116;11.660;2023-05-16T05:18:02;95207.09;;;10.12;100.00
65800;BME280;52544;48.116;11.660;2023-05-16T05:20:27;95199.16;;;10.12;100.00
65800;BME280;52544;48.116;11.660;2023-05-16T05:22:53;95200.81;;;10.13;100.00
65800;BME280;52544;48.116;11.660;2023-05-16T05:25:19;95191.91;;;10.14;100.00
65800;BME280;52544;48.116;11.660;2023-05-16T05:27:45;95199.72;;;10.16;100.00
65800;BME280;52544;48.116;11.660;2023-05-16T05:30:10;95190.81;;;10.17;100.00
65800;BME280;52544;48.116;11.660;2023-05-16T05:32:36;95196.91;;;10.17;100.00
65800;BME280;52544;48.116;11.660;2023-05-16T05:35:01;95199.00;;;10.23;100.00
65800;BME280;52544;48.116;11.660;2023-05-16T05:37:28;95192.78;;;10.24;100.00
65800;BME280;52544;48.116;11.660;2023-05-16T05:39:53;95193.34;;;10.28;100.00
65800;BME280;52544;48.116;11.660;2023-05-16T05:42:19;95190.56;;;10.30;100.00
65800;BME280;52544;48.116;11.660;2023-05-16T05:44:44;95192.38;;;10.29;100.00
65800;BME280;52544;48.116;11.660;2023-05-16T05:47:10;95191.97;;;10.34;100.00
65800;BME280;52544;48.116;11.660;2023-05-16T05:49:36;95191.38;;;10.40;100.00
65800;BME280;52544;48.116;11.660;2023-05-16T05:52:01;95191.69;;;10.37;100.00
65800;BME280;52544;48.116;11.660;2023-05-16T05:54:27;95186.94;;;10.40;100.00
65800;BME280;52544;48.116;11.660;2023-05-16T05:56:53;95187.78;;;10.41;100.00
65800;BME280;52544;48.116;11.660;2023-05-16T05:59:18;95196.13;;;10.46;100.00
65800;BME280;52544;48.116;11.660;2023-05-16T06:01:43;95185.69;;;10.54;100.00
65800;BME280;52544;48.116;11.660;2023-05-16T06:04:09;95189.03;;;10.46;100.00
65800;BME280;52544;48.116;11.660;2023-05-16T06:06:36;95189.19;;;10.45;100.00
65800;BME280;52544;48.116;11.660;2023-05-16T06:09:02;95188.06;;;10.47;100.00
65800;BME280;52544;48.116;11.660;2023-05-16T06:11:27;95196.56;;;10.51;100.00
65800;BME280;52544;48.116;11.660;2023-05-16T06:13:53;95192.66;;;10.45;100.00
65800;BME280;52544;48.116;11.660;2023-05-16T06:16:18;95201.44;;;10.46;100.00
65800;BME280;52544;48.116;11.660;2023-05-16T06:18:44;95184.16;;;10.51;100.00
65800;BME280;52544;48.116;11.660;2023-05-16T06:21:10;95196.41;;;10.52;100.00
65800;BME280;52544;48.116;11.660;2023-05-16T06:23:35;95188.88;;;10.48;100.00
65800;BME280;52544;48.116;11.660;2023-05-16T06:26:02;95188.06;;;10.47;100.00
65800;BME280;52544;48.116;11.660;2023-05-16T06:28:28;95193.19;;;10.49;100.00
65800;BME280;52544;48.116;11.660;2023-05-16T06:30:53;95198.22;;;10.52;100.00
65800;BME280;52544;48.116;11.660;2023-05-16T06:33:19;95195.69;;;10.60;100.00
65800;BME280;52544;48.116;11.660;2023-05-16T06:35:44;95184.13;;;10.61;100.00
65800;BME280;52544;48.116;11.660;2023-05-16T06:38:10;95190.38;;;10.70;100.00
65800;BME280;52544;48.116;11.660;2023-05-16T06:40:35;95196.94;;;10.75;100.00
65800;BME280;52544;48.116;11.660;2023-05-16T06:43:02;95201.69;;;10.72;100.00
65800;BME280;52544;48.116;11.660;2023-05-16T06:45:27;95201.94;;;10.79;100.00
65800;BME280;52544;48.116;11.660;2023-05-16T06:47:54;95199.84;;;10.82;100.00
65800;BME280;52544;48.116;11.660;2023-05-16T06:50:20;95207.53;;;10.75;100.00
65800;BME280;52544;48.116;11.660;2023-05-16T06:52:45;95206.28;;;10.80;100.00
65800;BME280;52544;48.116;11.660;2023-05-16T06:55:10;95198.34;;;10.80;100.00
65800;BME280;52544;48.116;11.660;2023-05-16T06:57:36;95198.63;;;10.76;100.00
65800;BME280;52544;48.116;11.660;2023-05-16T07:00:02;95194.97;;;10.87;100.00
65800;BME280;52544;48.116;11.660;2023-05-16T07:02:27;95195.50;;;10.91;100.00
65800;BME280;52544;48.116;11.660;2023-05-16T07:04:54;95188.69;;;10.98;100.00
65800;BME280;52544;48.116;11.660;2023-05-16T07:07:19;95191.06;;;10.91;100.00
65800;BME280;52544;48.116;11.660;2023-05-16T07:09:45;95183.81;;;10.93;100.00
65800;BME280;52544;48.116;11.660;2023-05-16T07:12:10;95186.31;;;10.95;100.00
65800;BME280;52544;48.116;11.660;2023-05-16T07:14:35;95191.34;;;10.98;100.00
65800;BME280;52544;48.116;11.660;2023-05-16T07:17:01;95189.34;;;11.00;100.00
65800;BME280;52544;48.116;11.660;2023-05-16T07:19:26;95188.09;;;11.04;100.00
65800;BME280;52544;48.116;11.660;2023-05-16T07:21:52;95187.97;;;11.06;100.00
65800;BME280;52544;48.116;11.660;2023-05-16T07:24:18;95182.94;;;11.02;100.00
65800;BME280;52544;48.116;11.660;2023-05-16T07:26:43;95183.78;;;11.03;100.00
65800;BME280;52544;48.116;11.660;2023-05-16T07:29:09;95189.66;;;10.97;100.00
65800;BME280;52544;48.116;11.660;2023-05-16T07:31:34;95194.25;;;10.95;100.00
65800;BME280;52544;48.116;11.660;2023-05-16T07:33:59;95195.94;;;10.96;100.00
65800;BME280;52544;48.116;11.660;2023-05-16T07:36:25;95213.09;;;10.92;100.00
65800;BME280;52544;48.116;11.660;2023-05-16T07:38:50;95218.38;;;10.92;100.00
65800;BME280;52544;48.116;11.660;2023-05-16T07:41:16;95216.41;;;10.94;100.00
65800;BME280;52544;48.116;11.660;2023-05-16T07:43:41;95215.19;;;10.88;100.00
65800;BME280;52544;48.116;11.660;2023-05-16T07:46:07;95215.75;;;10.92;100.00
65800;BME280;52544;48.116;11.660;2023-05-16T07:48:32;95224.22;;;10.95;100.00
65800;BME280;52544;48.116;11.660;2023-05-16T07:50:57;95223.09;;;10.98;100.00
65800;BME280;52544;48.116;11.660;2023-05-16T07:53:23;95227.72;;;10.96;100.00
65800;BME280;52544;48.116;11.660;2023-05-16T07:55:48;95228.41;;;10.98;100.00
65800;BME280;52544;48.116;11.660;2023-05-16T07:58:14;95235.66;;;10.96;100.00
65800;BME280;52544;48.116;11.660;2023-05-16T08:00:40;95235.34;;;10.99;100.00
65800;BME280;52544;48.116;11.660;2023-05-16T08:03:05;95233.41;;;11.01;100.00
65800;BME280;52544;48.116;11.660;2023-05-16T08:05:31;95243.19;;;11.00;100.00
65800;BME280;52544;48.116;11.660;2023-05-16T08:07:56;95238.72;;;11.01;100.00
65800;BME280;52544;48.116;11.660;2023-05-16T08:10:21;95235.06;;;11.02;100.00
65800;BME280;52544;48.116;11.660;2023-05-16T08:12:49;95227.56;;;10.97;100.00
65800;BME280;52544;48.116;11.660;2023-05-16T08:15:15;95224.75;;;10.99;100.00
65800;BME280;52544;48.116;11.660;2023-05-16T08:17:40;95236.19;;;10.99;100.00
65800;BME280;52544;48.116;11.660;2023-05-16T08:20:06;95238.97;;;11.08;100.00
65800;BME280;52544;48.116;11.660;2023-05-16T08:22:32;95245.81;;;11.10;100.00
65800;BME280;52544;48.116;11.660;2023-05-16T08:24:58;95243.16;;;11.10;100.00
65800;BME280;52544;48.116;11.660;2023-05-16T08:27:26;95241.50;;;11.09;100.00
65800;BME280;52544;48.116;11.660;2023-05-16T08:29:52;95241.88;;;11.14;100.00
65800;BME280;52544;48.116;11.660;2023-05-16T08:32:17;95228.91;;;11.21;100.00
65800;BME280;52544;48.116;11.660;2023-05-16T08:34:42;95226.66;;;11.26;100.00
65800;BME280;52544;48.116;11.660;2023-05-16T08:37:08;95227.78;;;11.23;100.00
65800;BME280;52544;48.116;11.660;2023-05-16T08:39:35;95224.84;;;11.26;100.00
65800;BME280;52544;48.116;11.660;2023-05-16T08:42:00;95227.63;;;11.25;100.00
65800;BME280;52544;48.116;11.660;2023-05-16T08:44:27;95229.84;;;11.30;100.00
65800;BME280;52544;48.116;11.660;2023-05-16T08:46:53;95236.41;;;11.35;100.00
65800;BME280;52544;48.116;11.660;2023-05-16T08:49:20;95233.88;;;11.34;100.00
65800;BME280;52544;48.116;11.660;2023-05-16T08:51:46;95236.09;;;11.38;100.00
65800;BME280;52544;48.116;11.660;2023-05-16T08:54:13;95241.28;;;11.40;100.00
65800;BME280;52544;48.116;11.660;2023-05-16T08:56:43;95235.56;;;11.35;100.00
65800;BME280;52544;48.116;11.660;2023-05-16T08:59:09;95239.59;;;11.29;100.00
65800;BME280;52544;48.116;11.660;2023-05-16T09:01:36;95237.50;;;11.33;100.00
65800;BME280;52544;48.116;11.660;2023-05-16T09:04:05;95226.66;;;11.26;100.00
65800;BME280;52544;48.116;11.660;2023-05-16T09:06:31;95224.16;;;11.34;100.00
65800;BME280;52544;48.116;11.660;2023-05-16T09:08:56;95217.13;;;11.43;100.00
65800;BME280;52544;48.116;11.660;2023-05-16T09:11:22;95212.22;;;11.48;100.00
65800;BME280;52544;48.116;11.660;2023-05-16T09:13:48;95219.88;;;11.51;100.00
65800;BME280;52544;48.116;11.660;2023-05-16T09:16:18;95213.72;;;11.60;100.00
65800;BME280;52544;48.116;11.660;2023-05-16T09:18:45;95206.94;;;11.75;100.00
65800;BME280;52544;48.116;11.660;2023-05-16T09:21:16;95202.03;;;11.90;100.00
65800;BME280;52544;48.116;11.660;2023-05-16T09:23:42;95198.41;;;12.09;100.00
65800;BME280;52544;48.116;11.660;2023-05-16T09:26:08;95205.78;;;12.33;100.00
65800;BME280;52544;48.116;11.660;2023-05-16T09:28:36;95202.06;;;12.44;100.00
65800;BME280;52544;48.116;11.660;2023-05-16T09:31:02;95208.28;;;12.70;100.00
65800;BME280;52544;48.116;11.660;2023-05-16T09:33:28;95208.88;;;13.00;100.00
65800;BME280;52544;48.116;11.660;2023-05-16T09:35:58;95209.53;;;13.02;100.00
65800;BME280;52544;48.116;11.660;2023-05-16T09:38:25;95213.00;;;13.02;100.00
65800;BME280;52544;48.116;11.660;2023-05-16T09:40:52;95208.75;;;13.10;100.00
65800;BME280;52544;48.116;11.660;2023-05-16T09:43:21;95210.06;;;13.06;100.00
65800;BME280;52544;48.116;11.660;2023-05-16T09:45:48;95203.63;;;13.16;100.00
65800;BME280;52544;48.116;11.660;2023-05-16T09:48:14;95210.03;;;13.23;100.00
65800;BME280;52544;48.116;11.660;2023-05-16T09:50:54;95215.34;;;13.23;100.00
65800;BME280;52544;48.116;11.660;2023-05-16T09:53:25;95212.31;;;13.18;100.00
65800;BME280;52544;48.116;11.660;2023-05-16T09:56:02;95219.56;;;13.16;100.00
65800;BME280;52544;48.116;11.660;2023-05-16T09:58:32;95215.19;;;13.07;100.00
65800;BME280;52544;48.116;11.660;2023-05-16T10:00:59;95214.66;;;13.04;100.00
65800;BME280;52544;48.116;11.660;2023-05-16T10:03:25;95216.66;;;13.01;100.00
65800;BME280;52544;48.116;11.660;2023-05-16T10:05:52;95211.94;;;12.95;100.00
65800;BME280;52544;48.116;11.660;2023-05-16T10:08:22;95221.75;;;12.95;100.00
65800;BME280;52544;48.116;11.660;2023-05-16T10:10:55;95219.09;;;12.95;100.00
65800;BME280;52544;48.116;11.660;2023-05-16T10:13:23;95217.06;;;12.89;100.00
65800;BME280;52544;48.116;11.660;2023-05-16T10:15:49;95218.81;;;12.80;100.00
65800;BME280;52544;48.116;11.660;2023-05-16T10:18:17;95224.13;;;12.80;100.00
65800;BME280;52544;48.116;11.660;2023-05-16T10:20:45;95217.28;;;12.77;100.00
65800;BME280;52544;48.116;11.660;2023-05-16T10:23:16;95222.47;;;12.79;100.00
65800;BME280;52544;48.116;11.660;2023-05-16T10:25:43;95217.63;;;12.74;100.00
65800;BME280;52544;48.116;11.660;2023-05-16T10:28:09;95224.88;;;12.72;100.00
65800;BME280;52544;48.116;11.660;2023-05-16T10:30:36;95214.19;;;12.64;100.00
65800;BME280;52544;48.116;11.660;2023-05-16T10:33:04;95230.13;;;12.64;100.00
65800;BME280;52544;48.116;11.660;2023-05-16T10:35:30;95228.47;;;12.63;100.00
65800;BME280;52544;48.116;11.660;2023-05-16T10:37:57;95231.03;;;12.55;100.00
65800;BME280;52544;48.116;11.660;2023-05-16T10:40:23;95231.34;;;12.52;100.00
65800;BME280;52544;48.116;11.660;2023-05-16T10:43:00;95233.78;;;12.45;100.00
65800;BME280;52544;48.116;11.660;2023-05-16T10:45:26;95233.53;;;12.39;100.00
65800;BME280;52544;48.116;11.660;2023-05-16T10:47:55;95238.22;;;12.27;100.00
65800;BME280;52544;48.116;11.660;2023-05-16T10:50:44;95236.00;;;12.22;100.00
65800;BME280;52544;48.116;11.660;2023-05-16T10:53:14;95241.22;;;12.14;100.00
65800;BME280;52544;48.116;11.660;2023-05-16T10:55:48;95240.56;;;12.12;100.00
65800;BME280;52544;48.116;11.660;2023-05-16T10:58:21;95238.06;;;12.11;100.00
65800;BME280;52544;48.116;11.660;2023-05-16T11:00:47;95245.47;;;12.07;100.00
65800;BME280;52544;48.116;11.660;2023-05-16T11:03:21;95241.13;;;12.06;100.00
65800;BME280;52544;48.116;11.660;2023-05-16T11:05:52;95237.25;;;12.00;100.00
65800;BME280;52544;48.116;11.660;2023-05-16T11:08:18;95234.38;;;11.94;100.00
65800;BME280;52544;48.116;11.660;2023-05-16T11:10:44;95237.31;;;11.91;100.00
65800;BME280;52544;48.116;11.660;2023-05-16T11:13:09;95240.34;;;11.96;100.00
65800;BME280;52544;48.116;11.660;2023-05-16T11:15:34;95238.16;;;11.91;100.00
65800;BME280;52544;48.116;11.660;2023-05-16T11:18:05;95230.09;;;11.83;100.00
65800;BME280;52544;48.116;11.660;2023-05-16T11:20:33;95236.34;;;11.82;100.00
65800;BME280;52544;48.116;11.660;2023-05-16T11:25:47;95217.22;;;11.88;100.00
65800;BME280;52544;48.116;11.660;2023-05-16T11:28:15;95222.53;;;11.88;100.00
65800;BME280;52544;48.116;11.660;2023-05-16T11:30:43;95223.06;;;11.92;100.00
65800;BME280;52544;48.116;11.660;2023-05-16T11:33:10;95220.25;;;11.93;100.00
65800;BME280;52544;48.116;11.660;2023-05-16T11:35:37;95225.38;;;12.05;100.00
65800;BME280;52544;48.116;11.660;2023-05-16T11:38:03;95224.38;;;12.06;100.00
65800;BME280;52544;48.116;11.660;2023-05-16T11:40:28;95229.13;;;12.12;100.00
65800;BME280;52544;48.116;11.660;2023-05-16T11:42:54;95230.94;;;12.11;100.00
65800;BME280;52544;48.116;11.660;2023-05-16T11:45:21;95229.13;;;12.12;100.00
65800;BME280;52544;48.116;11.660;2023-05-16T11:47:48;95231.22;;;12.08;100.00
65800;BME280;52544;48.116;11.660;2023-05-16T11:50:21;95228.84;;;12.05;100.00
65800;BME280;52544;48.116;11.660;2023-05-16T11:52:57;95238.06;;;12.11;100.00
65800;BME280;52544;48.116;11.660;2023-05-16T11:55:24;95236.63;;;12.16;100.00
65800;BME280;52544;48.116;11.660;2023-05-16T11:57:50;95228.56;;;12.08;100.00
65800;BME280;52544;48.116;11.660;2023-05-16T12:00:18;95228.19;;;12.03;100.00
65800;BME280;52544;48.116;11.660;2023-05-16T12:02:45;95228.31;;;12.01;100.00
65800;BME280;52544;48.116;11.660;2023-05-16T12:05:12;95227.81;;;11.98;100.00
65800;BME280;52544;48.116;11.660;2023-05-16T12:07:38;95231.72;;;11.94;100.00
65800;BME280;52544;48.116;11.660;2023-05-16T12:10:08;95220.97;;;11.95;100.00
65800;BME280;52544;48.116;11.660;2023-05-16T12:12:35;95222.50;;;11.98;100.00
65800;BME280;52544;48.116;11.660;2023-05-16T12:15:02;95226.94;;;11.97;100.00
65800;BME280;52544;48.116;11.660;2023-05-16T12:17:28;95224.44;;;11.96;100.00
65800;BME280;52544;48.116;11.660;2023-05-16T12:19:54;95226.91;;;12.07;100.00
65800;BME280;52544;48.116;11.660;2023-05-16T12:22:20;95232.75;;;12.11;100.00
65800;BME280;52544;48.116;11.660;2023-05-16T12:24:46;95219.88;;;12.16;100.00
65800;BME280;52544;48.116;11.660;2023-05-16T12:27:11;95228.75;;;12.24;100.00
65800;BME280;52544;48.116;11.660;2023-05-16T12:29:37;95223.22;;;12.36;100.00
65800;BME280;52544;48.116;11.660;2023-05-16T12:32:03;95225.13;;;12.43;100.00
65800;BME280;52544;48.116;11.660;2023-05-16T12:34:29;95217.09;;;12.53;100.00
65800;BME280;52544;48.116;11.660;2023-05-16T12:36:55;95216.78;;;12.56;100.00
65800;BME280;52544;48.116;11.660;2023-05-16T12:39:21;95222.84;;;12.66;100.00
65800;BME280;52544;48.116;11.660;2023-05-16T12:41:47;95218.44;;;12.57;100.00
65800;BME280;52544;48.116;11.660;2023-05-16T12:44:14;95220.66;;;12.62;100.00
65800;BME280;52544;48.116;11.660;2023-05-16T12:46:48;95215.03;;;12.65;100.00
65800;BME280;52544;48.116;11.660;2023-05-16T12:49:14;95209.41;;;12.68;100.00